createdAt,value
2018-08-07T04:54:57.923Z,99727.67
2018-08-07T04:57:25.496Z,99721.17
2018-08-07T04:59:53.099Z,99723.84
2018-08-07T05:02:21.106Z,99723.40
2018-08-07T05:04:48.656Z,99720.50
2018-08-07T05:07:16.353Z,99727.95
2018-08-07T05:09:43.919Z,99726.37
2018-08-07T05:12:11.518Z,99724.03
2018-08-07T05:14:39.120Z,99731.48
2018-08-07T05:17:06.883Z,99731.50
2018-08-07T05:19:34.470Z,99730.22
2018-08-07T05:22:02.306Z,99732.48
2018-08-07T05:24:29.924Z,99725.50
2018-08-07T05:26:57.553Z,99729.66
2018-08-07T05:29:25.192Z,99729.42
2018-08-07T05:31:52.771Z,99725.41
2018-08-07T05:34:20.457Z,99728.60
2018-08-07T05:36:48.166Z,99734.23
2018-08-07T05:39:15.726Z,99733.84
2018-08-07T05:41:43.339Z,99739.83
2018-08-07T05:44:10.996Z,99741.99
2018-08-07T05:46:38.599Z,99741.05
2018-08-07T05:49:06.167Z,99738.86
2018-08-07T05:51:33.926Z,99736.52
2018-08-07T05:54:01.501Z,99735.06
2018-08-07T05:56:29.210Z,99734.87
2018-08-07T05:58:56.844Z,99744.55
2018-08-07T06:01:24.470Z,99741.66
2018-08-07T06:03:52.080Z,99743.10
2018-08-07T06:06:19.672Z,99748.25
2018-08-07T06:08:47.318Z,99742.81
2018-08-07T06:11:14.918Z,99740.72
2018-08-07T06:13:42.524Z,99742.05
2018-08-07T06:16:10.092Z,99741.46
2018-08-07T06:18:37.692Z,99736.84
2018-08-07T06:21:05.541Z,99743.59
2018-08-07T06:23:33.234Z,99734.24
2018-08-07T06:26:00.807Z,99735.89
2018-08-07T06:28:28.510Z,99743.73
2018-08-07T06:30:56.673Z,99745.85
2018-08-07T06:33:24.295Z,99744.84
2018-08-07T06:35:51.981Z,99750.73
2018-08-07T06:38:19.525Z,99744.89
2018-08-07T06:40:47.125Z,99749.03
2018-08-07T06:43:14.726Z,99745.02
2018-08-07T06:45:42.366Z,99743.55
2018-08-07T06:48:10.079Z,99747.95
2018-08-07T06:50:37.698Z,99741.99
2018-08-07T06:53:06.050Z,99748.38
2018-08-07T06:55:33.654Z,99741.02
2018-08-07T06:58:01.322Z,99733.52
2018-08-07T07:00:29.041Z,99735.61
2018-08-07T07:02:56.634Z,99734.66
2018-08-07T07:05:24.293Z,99731.80
2018-08-07T07:07:51.860Z,99733.48
2018-08-07T07:10:19.492Z,99734.23
2018-08-07T07:12:47.400Z,99733.48
2018-08-07T07:15:15.836Z,99729.00
2018-08-07T07:17:44.890Z,99734.00
2018-08-07T07:20:14.179Z,99726.55
2018-08-07T07:22:43.289Z,99728.91
2018-08-07T07:25:11.162Z,99725.22
2018-08-07T07:27:39.341Z,99726.96
2018-08-07T07:30:13.009Z,99730.02
2018-08-07T07:32:41.013Z,99725.42
2018-08-07T07:35:08.595Z,99724.88
2018-08-07T07:37:36.193Z,99728.15
2018-08-07T07:40:04.999Z,99720.98
2018-08-07T07:42:32.558Z,99725.09
2018-08-07T07:45:00.303Z,99717.19
2018-08-07T07:47:27.945Z,99716.09
2018-08-07T07:49:55.501Z,99717.69
2018-08-07T07:52:23.080Z,99719.92
2018-08-07T07:54:50.731Z,99718.02
2018-08-07T07:57:18.384Z,99709.27
2018-08-07T07:59:45.984Z,99703.55
2018-08-07T08:02:13.557Z,99705.70
2018-08-07T08:04:41.147Z,99708.88
2018-08-07T08:07:08.855Z,99703.66
2018-08-07T08:09:36.432Z,99707.57
2018-08-07T08:12:04.096Z,99711.07
2018-08-07T08:14:36.824Z,99710.70
2018-08-07T08:17:04.930Z,99712.78
2018-08-07T08:19:32.530Z,99717.12
2018-08-07T08:22:00.116Z,99712.70
2018-08-07T08:24:27.670Z,99708.69
2018-08-07T08:26:55.286Z,99708.27
2018-08-07T08:29:23.122Z,99707.12
2018-08-07T08:31:50.476Z,99703.94
2018-08-07T08:34:18.893Z,99700.84
2018-08-07T08:36:46.459Z,99700.34
2018-08-07T08:39:14.049Z,99697.16
2018-08-07T08:41:41.901Z,99697.00
2018-08-07T08:44:09.513Z,99691.42
2018-08-07T08:46:37.578Z,99691.82
2018-08-07T08:49:05.297Z,99694.00
2018-08-07T08:51:32.909Z,99687.63
2018-08-07T08:54:00.501Z,99681.48
2018-08-07T08:56:28.123Z,99676.31
2018-08-07T08:58:55.705Z,99687.26
2018-08-07T09:01:23.289Z,99691.10
2018-08-07T09:03:52.102Z,99679.72
2018-08-07T09:06:19.965Z,99683.81
2018-08-07T09:08:47.548Z,99677.35
2018-08-07T09:11:15.042Z,99678.80
2018-08-07T09:13:42.640Z,99680.17
2018-08-07T09:16:10.207Z,99670.73
2018-08-07T09:18:37.798Z,99678.05
2018-08-07T09:21:05.342Z,99668.58
2018-08-07T09:23:32.858Z,99683.04
2018-08-07T09:26:00.471Z,99680.09
2018-08-07T09:28:28.027Z,99672.52
2018-08-07T09:30:55.642Z,99672.50
2018-08-07T09:33:23.532Z,99670.60
2018-08-07T09:35:51.172Z,99662.86
2018-08-07T09:38:18.920Z,99657.67
2018-08-07T09:40:46.524Z,99654.94
2018-08-07T09:43:14.090Z,99657.39
2018-08-07T09:45:41.762Z,99650.36
2018-08-07T09:48:11.223Z,99651.48
2018-08-07T09:50:38.946Z,99647.70
2018-08-07T09:53:06.543Z,99650.13
2018-08-07T09:55:34.439Z,99640.61
2018-08-07T09:58:02.235Z,99637.35
2018-08-07T10:00:35.696Z,99634.65
2018-08-07T10:03:04.608Z,99632.77
2018-08-07T10:05:33.229Z,99638.98
2018-08-07T10:08:00.713Z,99633.59
2018-08-07T10:10:29.177Z,99637.11
2018-08-07T10:12:56.860Z,99626.78
2018-08-07T10:15:24.589Z,99621.63
2018-08-07T10:17:52.289Z,99619.75
2018-08-07T10:20:19.920Z,99619.51
2018-08-07T10:22:47.575Z,99618.97
2018-08-07T10:25:17.121Z,99615.45
2018-08-07T10:27:45.922Z,99610.28
2018-08-07T10:30:16.672Z,99613.83
2018-08-07T10:32:44.380Z,99611.91
2018-08-07T10:35:12.603Z,99606.20
2018-08-07T10:37:41.585Z,99601.61
2018-08-07T10:40:11.939Z,99602.68
2018-08-07T10:42:39.613Z,99602.14
2018-08-07T10:45:10.974Z,99590.46
2018-08-07T10:47:39.095Z,99601.33
2018-08-07T10:50:14.670Z,99594.25
2018-08-07T10:52:42.381Z,99596.16
2018-08-07T10:55:10.126Z,99598.07
2018-08-07T10:57:40.027Z,99592.64
2018-08-07T11:00:14.001Z,99584.20
2018-08-07T11:02:42.101Z,99589.36
2018-08-07T11:05:10.114Z,99587.47
2018-08-07T11:07:37.877Z,99575.20
2018-08-07T11:10:07.864Z,99583.38
2018-08-07T11:12:35.626Z,99574.70
2018-08-07T11:15:04.358Z,99574.70
2018-08-07T11:17:31.987Z,99575.22
2018-08-07T11:19:59.609Z,99584.21
2018-08-07T11:22:27.261Z,99583.39
2018-08-07T11:24:55.355Z,99574.95
2018-08-07T11:27:22.965Z,99575.77
2018-08-07T11:29:50.629Z,99580.64
2018-08-07T11:32:18.197Z,99568.66
2018-08-07T11:34:45.809Z,99569.77
2018-08-07T11:37:13.393Z,99571.36
2018-08-07T11:39:41.006Z,99558.61
2018-08-07T11:42:08.840Z,99571.69
2018-08-07T11:44:36.509Z,99574.09
2018-08-07T11:47:04.125Z,99564.80
2018-08-07T11:49:31.708Z,99565.84
2018-08-07T11:51:59.321Z,99569.63
2018-08-07T11:57:01.635Z,99561.56
2018-08-07T11:59:29.258Z,99561.55
2018-08-07T12:01:57.103Z,99564.75
2018-08-07T12:04:24.725Z,99560.66
2018-08-07T12:06:53.074Z,99556.45
2018-08-07T12:09:20.646Z,99556.66
2018-08-07T12:11:48.224Z,99557.31
2018-08-07T12:14:15.818Z,99557.48
2018-08-07T12:16:44.122Z,99553.81
2018-08-07T12:19:11.732Z,99547.78
2018-08-07T12:21:39.375Z,99549.35
2018-08-07T12:24:06.976Z,99539.59
2018-08-07T12:26:34.628Z,99542.09
2018-08-07T12:29:02.210Z,99547.62
2018-08-07T12:31:29.803Z,99545.59
2018-08-07T12:33:57.400Z,99544.31
2018-08-07T12:36:24.985Z,99546.41
2018-08-07T12:38:52.733Z,99537.66
2018-08-07T12:41:20.366Z,99532.32
2018-08-07T12:43:47.920Z,99534.20
2018-08-07T12:46:15.545Z,99532.77
2018-08-07T12:48:43.137Z,99533.36
2018-08-07T12:51:10.743Z,99517.89
2018-08-07T12:53:38.394Z,99518.90
2018-08-07T12:56:06.211Z,99522.58
2018-08-07T12:58:33.881Z,99516.48
2018-08-07T13:01:01.467Z,99519.95
2018-08-07T13:03:29.410Z,99519.81
2018-08-07T13:05:57.042Z,99521.37
2018-08-07T13:08:24.658Z,99515.08
2018-08-07T13:10:52.317Z,99527.99
2018-08-07T13:13:19.928Z,99525.05
2018-08-07T13:15:47.588Z,99522.45
2018-08-07T13:18:15.198Z,99520.15
2018-08-07T13:20:42.796Z,99524.02
2018-08-07T13:23:10.404Z,99519.41
2018-08-07T13:25:38.001Z,99518.28
2018-08-07T13:39:56.925Z,99510.56
2018-08-07T13:42:24.506Z,99510.88
2018-08-07T13:44:52.116Z,99497.59
2018-08-07T13:47:19.681Z,99497.53
2018-08-07T13:49:47.282Z,99496.50
2018-08-07T13:52:14.900Z,99496.02
2018-08-07T13:54:42.545Z,99489.09
2018-08-07T13:57:10.141Z,99482.20
2018-08-07T13:59:37.789Z,99483.58
2018-08-07T14:02:05.415Z,99486.59
2018-08-07T14:04:33.043Z,99493.34
2018-08-07T14:07:00.610Z,99492.30
2018-08-07T14:09:28.171Z,99485.30
2018-08-07T14:11:55.816Z,99477.13
2018-08-07T14:14:23.442Z,99484.52
2018-08-07T14:16:51.089Z,99483.95
2018-08-07T14:19:18.739Z,99475.28
2018-08-07T14:21:46.348Z,99466.41
2018-08-07T14:24:14.237Z,99470.09
2018-08-07T14:26:41.893Z,99478.30
2018-08-07T14:29:09.598Z,99473.44
2018-08-07T14:31:37.268Z,99468.52
2018-08-07T14:34:04.893Z,99469.22
2018-08-07T14:36:32.687Z,99468.36
2018-08-07T14:39:00.237Z,99459.37
2018-08-07T14:41:27.857Z,99453.79
2018-08-07T14:43:55.449Z,99458.66
2018-08-07T14:46:23.061Z,99452.69
2018-08-07T14:48:50.706Z,99457.19
2018-08-07T14:51:18.369Z,99458.64
2018-08-07T14:53:45.949Z,99459.86
2018-08-07T14:56:13.611Z,99452.34
2018-08-07T14:58:41.301Z,99454.49
2018-08-07T15:01:08.937Z,99451.50
2018-08-07T15:03:36.579Z,99445.30
2018-08-07T15:06:04.642Z,99460.33
2018-08-07T15:08:32.269Z,99452.06
2018-08-07T15:11:00.027Z,99454.48
2018-08-07T15:13:27.643Z,99449.86
2018-08-07T15:15:55.419Z,99447.22
2018-08-07T15:18:23.039Z,99445.45
2018-08-07T15:20:50.735Z,99440.95
2018-08-07T15:23:18.326Z,99442.48
2018-08-07T15:25:45.983Z,99442.75
2018-08-07T15:28:13.637Z,99443.50
2018-08-07T15:30:41.284Z,99447.94
2018-08-07T15:33:09.214Z,99447.04
2018-08-07T15:35:37.463Z,99440.69
2018-08-07T15:38:05.129Z,99439.80
2018-08-07T15:40:32.714Z,99437.92
2018-08-07T15:43:00.295Z,99428.62
2018-08-07T15:45:27.999Z,99424.03
2018-08-07T15:47:55.820Z,99429.08
2018-08-07T15:50:23.566Z,99429.27
2018-08-07T15:52:52.604Z,99425.57
2018-08-07T15:55:22.576Z,99418.91
2018-08-07T15:57:50.340Z,99419.16
2018-08-07T16:00:24.784Z,99415.67
2018-08-07T16:02:52.736Z,99420.98
2018-08-07T16:05:21.085Z,99418.25
2018-08-07T16:07:50.037Z,99417.14
2018-08-07T16:10:18.481Z,99414.05
2018-08-07T16:12:47.334Z,99408.88
2018-08-07T16:15:15.226Z,99410.70
2018-08-07T16:17:43.958Z,99410.71
2018-08-07T16:20:11.574Z,99401.50
2018-08-07T16:22:39.944Z,99409.81
2018-08-07T16:25:09.338Z,99410.78
2018-08-07T16:27:37.506Z,99406.66
2018-08-07T16:30:10.296Z,99403.96
2018-08-07T16:32:37.926Z,99396.13
2018-08-07T16:35:05.740Z,99402.92
2018-08-07T16:37:33.340Z,99392.48
2018-08-07T16:40:01.562Z,99392.55
2018-08-07T16:42:29.298Z,99397.02
2018-08-07T16:44:57.581Z,99396.17
2018-08-07T16:47:25.319Z,99392.39
2018-08-07T16:49:53.108Z,99393.81
2018-08-07T16:52:20.819Z,99396.41
2018-08-07T16:54:48.650Z,99399.80
2018-08-07T16:57:16.410Z,99393.09
2018-08-07T16:59:44.338Z,99390.63
2018-08-07T17:02:12.199Z,99390.31
2018-08-07T17:04:39.807Z,99380.10
2018-08-07T17:07:07.456Z,99380.07
2018-08-07T17:09:35.222Z,99371.98
2018-08-07T17:12:03.091Z,99372.41
2018-08-07T17:14:30.873Z,99371.42
2018-08-07T17:16:58.639Z,99366.83
2018-08-07T17:19:26.551Z,99368.95
2018-08-07T17:21:54.339Z,99368.17
2018-08-07T17:24:22.047Z,99369.22
2018-08-07T17:26:49.860Z,99372.36
2018-08-07T17:29:17.738Z,99372.77
2018-08-07T17:31:45.411Z,99374.49
2018-08-07T17:34:13.049Z,99372.48
2018-08-07T17:36:40.704Z,99375.63
2018-08-07T17:39:08.441Z,99380.92
2018-08-07T17:41:39.519Z,99378.31
2018-08-07T17:44:07.363Z,99374.16
2018-08-07T17:46:35.170Z,99378.16
2018-08-07T17:49:02.943Z,99384.19
2018-08-07T17:51:31.077Z,99384.33
2018-08-07T17:53:58.931Z,99383.94
2018-08-07T17:56:26.648Z,99381.05
2018-08-07T17:58:54.441Z,99375.97
2018-08-07T18:01:22.237Z,99376.92
2018-08-07T18:03:50.083Z,99379.78
2018-08-07T18:06:17.849Z,99382.28
2018-08-07T18:08:45.843Z,99384.49
2018-08-07T18:11:13.544Z,99387.55
2018-08-07T18:13:41.524Z,99392.78
2018-08-07T18:16:09.321Z,99384.67
2018-08-07T18:18:37.116Z,99384.72
2018-08-07T18:21:04.793Z,99386.17
2018-08-07T18:23:32.622Z,99385.86
2018-08-07T18:26:00.424Z,99385.33
2018-08-07T18:28:28.224Z,99381.81
2018-08-07T18:30:56.066Z,99381.03
2018-08-07T18:33:23.959Z,99381.03
2018-08-07T18:35:51.802Z,99386.43
2018-08-07T18:38:19.713Z,99384.25
2018-08-07T18:40:47.510Z,99382.10
2018-08-07T18:43:15.487Z,99386.69
2018-08-07T18:45:43.365Z,99377.19
2018-08-07T18:48:11.271Z,99393.74
2018-08-07T18:50:39.172Z,99390.18
2018-08-07T18:53:06.991Z,99392.30
2018-08-07T18:55:34.766Z,99374.11
2018-08-07T18:58:02.815Z,99383.59
2018-08-07T19:00:30.821Z,99381.41
2018-08-07T19:02:58.579Z,99388.95
2018-08-07T19:05:26.275Z,99386.43
2018-08-07T19:07:53.934Z,99393.14
2018-08-07T19:10:22.114Z,99388.22
2018-08-07T19:12:50.166Z,99389.23
2018-08-07T19:15:19.223Z,99393.21
2018-08-07T19:17:47.179Z,99399.07
2018-08-07T19:20:17.788Z,99391.14
2018-08-07T19:22:46.021Z,99395.14
2018-08-07T19:25:13.947Z,99400.83
2018-08-07T19:27:42.062Z,99400.20
2018-08-07T19:30:12.930Z,99398.77
2018-08-07T19:32:41.312Z,99398.34
2018-08-07T19:35:10.553Z,99397.36
2018-08-07T19:37:38.635Z,99396.87
2018-08-07T19:40:12.550Z,99394.21
2018-08-07T19:42:40.420Z,99387.45
2018-08-07T19:45:09.418Z,99392.77
2018-08-07T19:47:37.482Z,99398.01
2018-08-07T19:50:07.456Z,99396.86
2018-08-07T19:52:36.119Z,99398.94
2018-08-07T19:55:05.239Z,99390.25
2018-08-07T19:57:33.128Z,99394.34
2018-08-07T20:00:01.008Z,99391.56
2018-08-07T20:02:29.093Z,99397.22
2018-08-07T20:04:57.101Z,99394.36
2018-08-07T20:07:24.949Z,99397.86
2018-08-07T20:09:52.775Z,99397.39
2018-08-07T20:12:20.626Z,99403.69
2018-08-07T20:14:48.429Z,99391.86
2018-08-07T20:17:18.258Z,99395.49
2018-08-07T20:19:46.282Z,99390.49
2018-08-07T20:22:15.602Z,99397.26
2018-08-07T20:24:43.414Z,99398.37
2018-08-07T20:27:11.414Z,99400.09
2018-08-07T20:29:39.146Z,99390.49
2018-08-07T20:32:07.934Z,99392.24
2018-08-07T20:34:35.721Z,99387.39
2018-08-07T20:37:03.523Z,99386.84
2018-08-07T20:39:31.285Z,99380.35
2018-08-07T20:41:58.977Z,99379.09
2018-08-07T20:44:26.764Z,99384.42
2018-08-07T20:46:54.670Z,99384.13
2018-08-07T20:49:22.356Z,99388.55
2018-08-07T20:51:49.940Z,99390.42
2018-08-07T20:54:17.711Z,99387.23
2018-08-07T20:56:45.425Z,99381.08
2018-08-07T20:59:13.226Z,99389.74
2018-08-07T21:01:41.110Z,99388.70
2018-08-07T21:04:08.859Z,99389.50
2018-08-07T21:06:36.621Z,99387.80
2018-08-07T21:09:07.497Z,99383.60
2018-08-07T21:11:35.225Z,99385.13
2018-08-07T21:14:03.165Z,99384.43
2018-08-07T21:16:30.946Z,99387.88
2018-08-07T21:18:58.554Z,99393.80
2018-08-07T21:21:26.254Z,99389.08
2018-08-07T21:23:53.942Z,99390.45
2018-08-07T21:26:21.560Z,99392.53
2018-08-07T21:28:49.210Z,99389.66
2018-08-07T21:31:16.996Z,99389.84
2018-08-07T21:33:44.842Z,99384.44
2018-08-07T21:36:12.470Z,99400.71
2018-08-07T21:38:40.181Z,99398.15
2018-08-07T21:41:07.889Z,99397.22
2018-08-07T21:43:35.539Z,99395.11
2018-08-07T21:46:03.145Z,99402.75
2018-08-07T21:48:30.803Z,99388.39
2018-08-07T21:50:58.469Z,99387.55
2018-08-07T21:53:26.122Z,99386.60
2018-08-07T21:55:53.815Z,99387.67
2018-08-07T21:58:21.514Z,99384.31
2018-08-07T22:00:50.265Z,99387.70
2018-08-07T22:03:18.157Z,99388.70
2018-08-07T22:05:46.361Z,99388.59
2018-08-07T22:08:14.897Z,99389.91
2018-08-07T22:10:42.664Z,99386.69
2018-08-07T22:13:10.389Z,99391.31
2018-08-07T22:15:38.279Z,99383.81
2018-08-07T22:18:08.220Z,99385.45
2018-08-07T22:20:35.910Z,99388.91
2018-08-07T22:23:03.683Z,99386.80
2018-08-07T22:25:31.451Z,99383.99
2018-08-07T22:27:59.119Z,99391.67
2018-08-07T22:30:26.846Z,99397.67
2018-08-07T22:32:54.517Z,99399.11
2018-08-07T22:35:22.125Z,99397.02
2018-08-07T22:37:50.005Z,99392.98
2018-08-07T22:40:17.639Z,99383.58
2018-08-07T22:42:45.285Z,99378.48
2018-08-07T22:45:14.649Z,99377.14
2018-08-07T22:47:42.592Z,99383.47
2018-08-07T22:50:11.685Z,99385.66
2018-08-07T22:52:39.861Z,99387.53
2018-08-07T22:55:09.915Z,99388.59
2018-08-07T22:57:37.486Z,99387.53
2018-08-07T23:00:11.144Z,99383.29
2018-08-07T23:02:38.700Z,99392.90
2018-08-07T23:05:06.884Z,99378.55
2018-08-07T23:07:34.486Z,99381.34
2018-08-07T23:10:02.290Z,99381.81
2018-08-07T23:12:29.877Z,99387.29
2018-08-07T23:14:57.513Z,99386.59
2018-08-07T23:17:25.333Z,99385.24
2018-08-07T23:19:53.145Z,99381.77
2018-08-07T23:22:20.831Z,99379.06
2018-08-07T23:24:48.609Z,99373.81
2018-08-07T23:27:16.289Z,99372.83
2018-08-07T23:29:43.969Z,99372.56
2018-08-07T23:32:11.655Z,99376.78
2018-08-07T23:34:39.269Z,99376.56
2018-08-07T23:37:06.981Z,99374.14
2018-08-07T23:39:34.570Z,99373.56
2018-08-07T23:42:02.299Z,99372.95
2018-08-07T23:44:30.003Z,99372.12
2018-08-07T23:46:57.705Z,99376.37
2018-08-07T23:49:25.318Z,99373.94
2018-08-07T23:51:53.047Z,99363.24
2018-08-07T23:54:20.851Z,99372.46
2018-08-07T23:56:48.586Z,99365.12
2018-08-07T23:59:16.318Z,99363.09
